Sugar Land Regional Airport
KSGR : now visible

Airfield :











YOU CAN JOIN US ON...

 
LOGIN :

Register | Disclaimer

   EN    FR    IT 

 









Legend :    VFR   Marginal VFR   IFR   Intensive IFR   Very Intensive IFR
Visi :
Ceiling :
>= 8 km
>= 3000ft
5 to 8 km
1000 to 3000 ft
1500m to 5 km
500 to 1000 ft
800 to 1500m
200 to 500 ft
< 800m
< 200 ft
Symbols :   Thunderstorms  Fog  Heavy snow  Heavy precipitations  Wind > 20 kt






- Airport Elevation : 82 ft


KSGR - Sugar Land Regional

CURRENT METAR :
  • 172053Z 19015G22KT 10SM SCT031 SCT039 BKN075 27/21 A2984 RMK AO2 SLP104 T02720206 56022

EXPIRED METARs :
  • 171953Z 19010KT 10SM SCT026 BKN033 BKN050 26/21 A2985 RMK AO2 SLP109 T02610211
  • 171930Z 19013KT 10SM SCT024 BKN034 26/21 A2986 RMK AO2 T02610211
  • 171853Z 20012KT 10SM BKN020 BKN027 OVC045 25/22 A2988 RMK AO2 SLP119 T02500217

TAF KSGR
Valid from the 17 at 18:00 until the 18 at 18:00 UTC


171722Z 1718/1818 18010KT P6SM OVC011
FM172000 19012KT P6SM SCT016 BKN023
FM172100 18012KT P6SM SCT017 BKN035
FM180100 17010KT P6SM SCT007 BKN015
FM180300 17009KT P6SM BKN008
FM180600 16007KT 3SM BR OVC004
FM181600 16007KT 4SM BR OVC007



MET'MAP, your aeronautical weather chart ! - Copyright ORBIFLY December 2007 - Disclaimer

ORBIFLY MET'MAP TEAM :

Programming & Development : Alexandra Zaïnal
Concept & original design : Baudouin d'Aumeries
Assistance for programming : Marc-Olivier Méhu
Technical & hardware support : Manuel Goepfert

Contact : metmap@orbifly.com




SOURCES & CREDITS :

   NOAA       Earth
Advisory